createdAt,value
2022-11-01T00:02:12.231Z,11.60
2022-11-01T00:04:43.038Z,8.80
2022-11-01T00:07:11.287Z,9.13
2022-11-01T00:09:39.559Z,11.17
2022-11-01T00:12:08.110Z,8.57
2022-11-01T00:14:37.613Z,13.97
2022-11-01T00:17:05.873Z,9.57
2022-11-01T00:19:34.164Z,9.60
2022-11-01T00:22:02.312Z,8.23
2022-11-01T00:24:31.500Z,10.53
2022-11-01T00:27:00.797Z,10.03
2022-11-01T00:29:29.062Z,9.80
2022-11-01T00:31:58.610Z,8.10
2022-11-01T00:34:26.836Z,10.50
2022-11-01T00:36:54.976Z,8.47
2022-11-01T00:39:27.476Z,6.77
2022-11-01T00:41:59.853Z,13.37
2022-11-01T00:44:28.006Z,10.13
2022-11-01T00:46:57.802Z,7.63
2022-11-01T00:49:26.155Z,10.00
2022-11-01T00:51:54.414Z,5.77
2022-11-01T00:54:22.582Z,7.20
2022-11-01T00:56:50.778Z,6.63
2022-11-01T00:59:19.153Z,9.23
2022-11-01T01:01:47.768Z,9.60
2022-11-01T01:04:17.473Z,10.70
2022-11-01T01:06:45.822Z,9.77
2022-11-01T01:09:14.009Z,10.40
2022-11-01T01:11:42.212Z,8.77
2022-11-01T01:14:11.003Z,7.03
2022-11-01T01:16:39.556Z,9.53
2022-11-01T01:19:07.896Z,8.57
2022-11-01T01:21:37.502Z,9.30
2022-11-01T01:24:05.906Z,8.37
2022-11-01T01:26:34.001Z,9.37
2022-11-01T01:29:02.187Z,10.80
2022-11-01T01:31:30.393Z,6.43
2022-11-01T01:33:58.909Z,8.13
2022-11-01T01:36:27.026Z,9.53
2022-11-01T01:38:56.496Z,8.83
2022-11-01T01:41:42.379Z,8.10
2022-11-01T01:45:16.058Z,11.77
2022-11-01T01:47:47.909Z,9.77
2022-11-01T01:50:29.292Z,7.20
2022-11-01T01:53:04.768Z,9.10
2022-11-01T01:55:42.934Z,7.07
2022-11-01T01:58:13.938Z,6.17
2022-11-01T02:00:44.656Z,11.13
2022-11-01T02:03:13.947Z,8.60
2022-11-01T02:05:49.679Z,9.20
2022-11-01T02:08:26.788Z,8.30
2022-11-01T02:11:00.578Z,10.27
2022-11-01T02:13:30.217Z,9.17
2022-11-01T02:16:23.592Z,12.10
2022-11-01T02:19:09.736Z,11.03
2022-11-01T02:21:52.730Z,7.33
2022-11-01T02:25:10.732Z,7.23
2022-11-01T02:28:02.035Z,8.80
2022-11-01T02:30:43.072Z,7.83
2022-11-01T02:33:22.638Z,10.77
2022-11-01T02:36:01.059Z,7.27
2022-11-01T02:38:36.790Z,7.33
2022-11-01T02:41:12.984Z,9.50
2022-11-01T02:43:47.923Z,6.20
2022-11-01T02:46:35.281Z,10.70
2022-11-01T02:49:05.449Z,7.33
2022-11-01T02:51:35.750Z,8.87
2022-11-01T02:54:07.456Z,7.17
2022-11-01T02:56:40.253Z,7.47
2022-11-01T02:59:15.623Z,7.63
2022-11-01T03:01:45.899Z,8.17
2022-11-01T03:04:15.647Z,7.93
2022-11-01T03:06:51.039Z,8.83
2022-11-01T03:09:19.745Z,6.53
2022-11-01T03:11:55.825Z,5.87
2022-11-01T03:14:31.442Z,9.73
2022-11-01T03:17:03.984Z,5.50
2022-11-01T03:19:44.768Z,5.57
2022-11-01T03:22:18.118Z,6.83
2022-11-01T03:24:51.468Z,5.93
2022-11-01T03:27:28.009Z,5.33
2022-11-01T03:30:02.686Z,4.83
2022-11-01T03:32:39.180Z,9.37
2022-11-01T03:35:14.809Z,7.27
2022-11-01T03:37:47.174Z,5.33
2022-11-01T03:40:18.260Z,6.57
2022-11-01T03:42:49.723Z,5.87
2022-11-01T03:45:25.514Z,10.57
2022-11-01T03:47:53.919Z,6.67
2022-11-01T03:50:26.698Z,4.70
2022-11-01T03:52:55.435Z,7.87
2022-11-01T03:55:24.824Z,5.97
2022-11-01T03:57:55.029Z,5.00
2022-11-01T04:00:26.204Z,8.03
2022-11-01T04:02:56.230Z,7.33
2022-11-01T04:05:27.562Z,10.10
2022-11-01T04:07:56.520Z,6.87
2022-11-01T04:10:27.099Z,5.93
2022-11-01T04:12:55.533Z,5.53
2022-11-01T04:15:43.357Z,8.27
2022-11-01T04:18:34.318Z,11.70
2022-11-01T04:21:06.954Z,6.77
2022-11-01T04:23:36.299Z,8.77
2022-11-01T04:26:06.556Z,9.70
2022-11-01T04:28:34.915Z,5.53
2022-11-01T04:31:03.387Z,12.03
2022-11-01T04:33:31.633Z,7.87
2022-11-01T04:36:04.649Z,8.47
2022-11-01T04:38:34.178Z,6.43
2022-11-01T04:41:02.377Z,7.07
2022-11-01T04:43:31.100Z,5.40
2022-11-01T04:45:59.705Z,4.83
2022-11-01T04:48:28.300Z,6.97
2022-11-01T04:50:56.449Z,7.40
2022-11-01T04:53:24.647Z,6.53
2022-11-01T04:55:54.222Z,7.50
2022-11-01T04:58:22.352Z,9.10
2022-11-01T05:00:50.842Z,5.80
2022-11-01T05:03:23.384Z,8.23
2022-11-01T05:05:52.139Z,11.57
2022-11-01T05:08:20.257Z,5.23
2022-11-01T05:10:53.205Z,4.70
2022-11-01T05:13:23.469Z,4.40
2022-11-01T05:16:06.550Z,5.43
2022-11-01T05:18:41.612Z,3.23
2022-11-01T05:21:09.807Z,5.40
2022-11-01T05:23:37.997Z,4.57
2022-11-01T05:26:06.745Z,3.17
2022-11-01T05:28:36.184Z,5.93
2022-11-01T05:31:04.329Z,4.90
2022-11-01T05:33:32.547Z,4.10
2022-11-01T05:36:02.562Z,4.63
2022-11-01T05:38:31.010Z,4.60
2022-11-01T05:40:59.301Z,5.37
2022-11-01T05:43:30.013Z,6.43
2022-11-01T05:45:59.559Z,5.20
2022-11-01T05:48:27.769Z,4.27
2022-11-01T05:50:56.034Z,2.57
2022-11-01T05:53:24.172Z,1.10
2022-11-01T05:55:55.157Z,1.37
2022-11-01T05:58:27.896Z,2.23
2022-11-01T06:01:00.823Z,1.67
2022-11-01T06:03:29.646Z,2.93
2022-11-01T06:05:58.052Z,2.13
2022-11-01T06:08:27.093Z,2.70
2022-11-01T06:11:02.627Z,1.70
2022-11-01T06:13:31.181Z,2.57
2022-11-01T06:16:02.025Z,2.27
2022-11-01T06:18:31.025Z,2.33
2022-11-01T06:20:59.940Z,2.27
2022-11-01T06:23:28.284Z,2.67
2022-11-01T06:26:02.408Z,0.90
2022-11-01T06:28:30.596Z,0.93
2022-11-01T06:31:03.203Z,1.63
2022-11-01T06:33:31.599Z,3.37
2022-11-01T06:35:59.697Z,0.90
2022-11-01T06:38:27.799Z,0.80
2022-11-01T06:40:56.004Z,0.70
2022-11-01T06:43:24.127Z,0.97
2022-11-01T06:45:52.233Z,2.10
2022-11-01T06:48:21.689Z,1.00
2022-11-01T06:50:49.900Z,2.77
2022-11-01T06:53:18.025Z,1.70
2022-11-01T06:55:46.169Z,0.70
2022-11-01T06:58:14.369Z,0.63
2022-11-01T07:00:42.550Z,0.60
2022-11-01T07:03:14.247Z,0.93
2022-11-01T07:05:44.390Z,1.63
2022-11-01T07:08:14.249Z,0.60
2022-11-01T07:10:44.681Z,1.50
2022-11-01T07:13:14.817Z,2.37
2022-11-01T07:15:42.896Z,1.27
2022-11-01T07:18:11.638Z,2.63
2022-11-01T07:20:43.377Z,3.20
2022-11-01T07:23:16.186Z,1.00
2022-11-01T07:25:52.011Z,0.27
2022-11-01T07:28:20.521Z,0.37
2022-11-01T07:30:49.339Z,1.80
2022-11-01T07:33:18.329Z,0.67
2022-11-01T07:35:47.730Z,0.30
2022-11-01T07:38:17.679Z,0.63
2022-11-01T07:40:49.461Z,1.07
2022-11-01T07:43:18.811Z,0.60
2022-11-01T07:45:47.592Z,0.50
2022-11-01T07:48:19.550Z,0.50
2022-11-01T07:50:47.923Z,4.37
2022-11-01T07:53:19.484Z,3.60
2022-11-01T07:55:47.818Z,1.50
2022-11-01T07:58:20.238Z,1.93
2022-11-01T08:00:48.976Z,4.23
2022-11-01T08:03:19.343Z,3.30
2022-11-01T08:05:49.015Z,1.00
2022-11-01T08:08:18.825Z,0.70
2022-11-01T08:10:47.619Z,1.57
2022-11-01T08:13:19.016Z,0.83
2022-11-01T08:15:48.741Z,1.90
2022-11-01T08:18:17.438Z,1.40
2022-11-01T08:20:45.995Z,3.40
2022-11-01T08:23:14.276Z,0.60
2022-11-01T08:25:43.775Z,1.40
2022-11-01T08:28:14.865Z,0.97
2022-11-01T08:30:45.088Z,0.63
2022-11-01T08:33:13.600Z,0.60
2022-11-01T08:35:45.868Z,1.20
2022-11-01T08:38:17.308Z,0.80
2022-11-01T08:40:46.740Z,0.60
2022-11-01T08:43:14.949Z,0.70
2022-11-01T08:45:43.008Z,0.70
2022-11-01T08:48:11.565Z,0.50
2022-11-01T08:50:40.515Z,0.70
2022-11-01T08:53:10.363Z,0.47
2022-11-01T08:55:39.413Z,0.87
2022-11-01T08:58:09.479Z,0.50
2022-11-01T09:00:37.648Z,0.73
2022-11-01T09:03:06.321Z,1.00
2022-11-01T09:05:34.750Z,0.70
2022-11-01T09:08:03.559Z,0.70
2022-11-01T09:10:32.274Z,1.90
2022-11-01T09:13:02.270Z,4.20
2022-11-01T09:15:32.819Z,0.77
2022-11-01T09:18:06.070Z,2.03
2022-11-01T09:20:34.155Z,1.10
2022-11-01T09:23:02.562Z,1.70
2022-11-01T09:25:31.015Z,0.40
2022-11-01T09:27:59.330Z,1.23
2022-11-01T09:30:28.654Z,1.90
2022-11-01T09:32:58.234Z,2.97
2022-11-01T09:35:26.359Z,1.43
2022-11-01T09:37:59.205Z,0.33
2022-11-01T09:40:28.792Z,2.20
2022-11-01T09:43:01.532Z,1.00
2022-11-01T09:45:34.254Z,0.77
2022-11-01T09:48:06.595Z,0.83
2022-11-01T09:50:38.999Z,0.77
2022-11-01T09:53:17.386Z,0.47
2022-11-01T09:55:52.428Z,0.47
2022-11-01T09:58:35.075Z,1.53
2022-11-01T10:01:25.760Z,1.13
2022-11-01T10:04:16.588Z,1.37
2022-11-01T10:06:52.956Z,2.53
2022-11-01T10:09:34.086Z,1.07
2022-11-01T10:12:18.857Z,0.60
2022-11-01T10:15:10.257Z,1.60
2022-11-01T10:18:02.382Z,1.40
2022-11-01T10:20:39.035Z,0.60
2022-11-01T10:23:07.462Z,4.13
2022-11-01T10:25:40.358Z,1.40
2022-11-01T10:28:17.006Z,1.23
2022-11-01T10:30:50.963Z,3.20
2022-11-01T10:33:30.313Z,1.10
2022-11-01T10:36:03.644Z,2.07
2022-11-01T10:38:59.543Z,1.60
2022-11-01T10:41:36.268Z,0.70
2022-11-01T10:44:13.849Z,0.87
2022-11-01T10:46:47.265Z,4.20
2022-11-01T10:49:35.111Z,6.83
2022-11-01T10:52:21.300Z,4.33
2022-11-01T10:54:53.127Z,1.43
2022-11-01T10:57:35.814Z,4.07
2022-11-01T11:00:11.831Z,0.83
2022-11-01T11:02:43.882Z,3.13
2022-11-01T11:05:14.451Z,0.80
2022-11-01T11:07:45.181Z,0.93
2022-11-01T11:10:23.953Z,3.37
2022-11-01T11:12:57.279Z,1.07
2022-11-01T11:15:39.241Z,2.67
2022-11-01T11:18:18.470Z,2.57
2022-11-01T11:20:53.390Z,3.80
2022-11-01T11:23:23.769Z,1.63
2022-11-01T11:25:52.242Z,3.93
2022-11-01T11:28:30.464Z,2.73
2022-11-01T11:31:13.326Z,2.43
2022-11-01T11:33:48.852Z,4.60
2022-11-01T11:36:18.429Z,3.37
2022-11-01T11:38:51.907Z,3.07
2022-11-01T11:41:32.927Z,1.67
2022-11-01T11:44:02.843Z,2.93
2022-11-01T11:46:31.098Z,2.00
2022-11-01T11:49:06.924Z,0.90
2022-11-01T11:51:38.156Z,2.17
2022-11-01T11:54:25.893Z,2.57
2022-11-01T11:57:11.608Z,3.30
2022-11-01T11:59:41.484Z,1.57
2022-11-01T12:02:20.765Z,6.80
2022-11-01T12:04:55.692Z,2.87
2022-11-01T12:07:31.616Z,4.30
2022-11-01T12:10:04.586Z,8.43
2022-11-01T12:12:35.018Z,3.70
2022-11-01T12:15:04.336Z,2.60
2022-11-01T12:17:36.585Z,3.97
2022-11-01T12:20:17.190Z,3.13
2022-11-01T12:22:51.899Z,2.23
2022-11-01T12:25:25.304Z,1.30
2022-11-01T12:27:59.594Z,2.70
2022-11-01T12:30:32.142Z,3.73
2022-11-01T12:33:03.737Z,3.43
2022-11-01T12:35:36.206Z,4.43
2022-11-01T12:38:39.380Z,1.10
2022-11-01T12:41:31.080Z,4.87
2022-11-01T12:44:33.618Z,3.03
2022-11-01T12:47:08.201Z,3.50
2022-11-01T12:49:46.740Z,2.43
2022-11-01T12:52:23.427Z,3.47
2022-11-01T12:55:04.050Z,3.67
2022-11-01T12:57:36.007Z,2.30
2022-11-01T13:00:05.782Z,3.17
2022-11-01T13:03:04.590Z,4.20
2022-11-01T13:05:50.244Z,2.90
2022-11-01T13:08:28.873Z,4.97
2022-11-01T13:11:03.952Z,4.53
2022-11-01T13:13:42.822Z,2.53
2022-11-01T13:16:17.938Z,3.90
2022-11-01T13:18:55.476Z,2.80
2022-11-01T13:21:37.633Z,4.93
2022-11-01T13:24:17.235Z,2.63
2022-11-01T13:26:52.345Z,4.23
2022-11-01T13:29:41.134Z,2.67
2022-11-01T13:32:20.896Z,3.30
2022-11-01T13:35:16.483Z,3.07
2022-11-01T13:37:53.417Z,2.90
2022-11-01T13:40:28.596Z,2.27
2022-11-01T13:43:02.829Z,4.23
2022-11-01T13:46:29.104Z,4.13
2022-11-01T13:49:44.833Z,1.73
2022-11-01T13:52:20.421Z,4.03
2022-11-01T13:54:56.722Z,2.33
2022-11-01T13:57:27.652Z,2.40
2022-11-01T13:59:59.207Z,1.77
2022-11-01T14:02:57.755Z,4.43
2022-11-01T14:05:38.633Z,2.93
2022-11-01T14:08:28.847Z,2.80
2022-11-01T14:10:57.575Z,2.13
2022-11-01T14:13:37.136Z,4.00
2022-11-01T14:16:27.316Z,1.97
2022-11-01T14:19:21.178Z,1.67
2022-11-01T14:21:54.440Z,4.57
2022-11-01T14:24:32.156Z,2.67
2022-11-01T14:27:35.928Z,5.90
2022-11-01T14:30:15.534Z,2.27
2022-11-01T14:32:51.452Z,3.27
2022-11-01T14:35:28.836Z,2.13
2022-11-01T14:38:02.715Z,4.90
2022-11-01T14:40:35.038Z,3.03
2022-11-01T14:43:12.600Z,4.90
2022-11-01T14:45:46.164Z,4.60
2022-11-01T14:48:22.854Z,3.57
2022-11-01T14:51:00.788Z,4.70
2022-11-01T14:53:33.983Z,3.10
2022-11-01T14:56:16.039Z,6.73
2022-11-01T14:58:44.781Z,4.23
2022-11-01T15:01:18.128Z,2.97
2022-11-01T15:03:55.652Z,4.60
2022-11-01T15:06:28.011Z,4.03
2022-11-01T15:08:58.964Z,3.10
2022-11-01T15:11:29.937Z,2.87
2022-11-01T15:14:06.720Z,3.70
2022-11-01T15:16:36.418Z,6.10
2022-11-01T15:19:08.485Z,2.57
2022-11-01T15:21:47.115Z,3.17
2022-11-01T15:24:25.147Z,2.90
2022-11-01T15:26:54.196Z,4.17
2022-11-01T15:29:25.511Z,3.37
2022-11-01T15:31:58.468Z,2.33
2022-11-01T15:34:29.344Z,1.17
2022-11-01T15:36:59.500Z,3.20
2022-11-01T15:39:30.170Z,2.43
2022-11-01T15:41:58.542Z,4.30
2022-11-01T15:44:29.768Z,4.50
2022-11-01T15:47:00.909Z,3.17
2022-11-01T15:49:34.903Z,4.43
2022-11-01T15:52:08.676Z,5.33
2022-11-01T15:54:45.214Z,4.17
2022-11-01T15:57:21.959Z,2.93
2022-11-01T16:00:00.866Z,5.87
2022-11-01T16:02:37.396Z,6.30
2022-11-01T16:05:06.989Z,4.67
2022-11-01T16:07:36.730Z,3.73
2022-11-01T16:10:09.134Z,4.93
2022-11-01T16:12:39.797Z,7.63
2022-11-01T16:15:22.260Z,2.27
2022-11-01T16:17:55.743Z,3.57
2022-11-01T16:20:32.177Z,2.83
2022-11-01T16:23:02.662Z,5.17
2022-11-01T16:25:33.701Z,4.27
2022-11-01T16:28:07.228Z,4.27
2022-11-01T16:30:46.544Z,3.97
2022-11-01T16:33:21.283Z,3.83
2022-11-01T16:35:51.510Z,3.77
2022-11-01T16:38:37.364Z,7.87
2022-11-01T16:41:14.986Z,5.60
2022-11-01T16:43:43.444Z,3.53
2022-11-01T16:46:11.629Z,5.37
2022-11-01T16:48:55.870Z,6.70
2022-11-01T16:51:28.443Z,5.47
2022-11-01T16:54:00.152Z,5.57
2022-11-01T16:56:36.941Z,4.73
2022-11-01T16:59:10.001Z,4.57
2022-11-01T17:01:39.418Z,2.77
2022-11-01T17:04:08.890Z,5.80
2022-11-01T17:06:39.155Z,2.50
2022-11-01T17:09:13.721Z,4.87
2022-11-01T17:11:51.531Z,4.07
2022-11-01T17:14:23.152Z,5.90
2022-11-01T17:16:53.561Z,5.40
2022-11-01T17:19:26.210Z,3.87
2022-11-01T17:21:55.872Z,6.17
2022-11-01T17:24:27.124Z,5.40
2022-11-01T17:27:00.535Z,3.13
2022-11-01T17:29:29.179Z,4.70
2022-11-01T17:31:57.252Z,4.50
2022-11-01T17:34:26.639Z,5.20
2022-11-01T17:36:55.717Z,5.87
2022-11-01T17:39:27.509Z,11.17
2022-11-01T17:41:58.158Z,11.97
2022-11-01T17:44:26.510Z,6.07
2022-11-01T17:46:54.822Z,5.23
2022-11-01T17:49:24.512Z,4.03
2022-11-01T17:51:54.939Z,5.50
2022-11-01T17:56:58.171Z,3.83
2022-11-01T17:59:26.492Z,3.20
2022-11-01T18:01:54.889Z,6.30
2022-11-01T18:04:23.466Z,6.40
2022-11-01T18:06:51.975Z,8.33
2022-11-01T18:09:24.619Z,7.60
2022-11-01T18:12:06.010Z,3.20
2022-11-01T18:17:39.190Z,4.20
2022-11-01T18:20:20.684Z,5.80
2022-11-01T18:22:55.584Z,4.13
2022-11-01T18:25:32.586Z,5.27
2022-11-01T18:28:04.035Z,4.80
2022-11-01T18:30:32.373Z,3.13
2022-11-01T18:33:06.094Z,3.60
2022-11-01T18:35:40.008Z,4.80
2022-11-01T18:38:17.897Z,5.63
2022-11-01T18:41:00.105Z,5.23
2022-11-01T18:43:32.993Z,8.53
2022-11-01T18:46:25.181Z,24.10
2022-11-01T18:48:59.917Z,19.43
2022-11-01T18:51:31.452Z,11.50
2022-11-01T18:54:24.102Z,13.93
2022-11-01T18:56:55.263Z,15.60
2022-11-01T18:59:34.940Z,10.60
2022-11-01T19:02:13.755Z,9.13
2022-11-01T19:04:43.823Z,24.13
2022-11-01T19:07:15.303Z,16.77
2022-11-01T19:09:53.137Z,9.17
2022-11-01T19:12:27.980Z,5.50
2022-11-01T19:15:15.988Z,5.53
2022-11-01T19:17:47.816Z,2.83
2022-11-01T19:20:23.655Z,4.40
2022-11-01T19:22:55.429Z,2.63
2022-11-01T19:25:25.726Z,4.03
2022-11-01T19:27:57.120Z,8.70
2022-11-01T19:30:29.826Z,1.87
2022-11-01T19:33:03.378Z,3.30
2022-11-01T19:35:31.659Z,2.23
2022-11-01T19:38:00.860Z,6.23
2022-11-01T19:40:33.560Z,2.73
2022-11-01T19:43:13.456Z,3.17
2022-11-01T19:45:47.867Z,4.67
2022-11-01T19:48:20.814Z,1.97
2022-11-01T19:50:49.066Z,4.73
2022-11-01T19:53:31.008Z,4.67
2022-11-01T19:56:04.291Z,11.33
2022-11-01T19:58:43.619Z,7.07
2022-11-01T20:01:40.710Z,5.57
2022-11-01T20:04:26.981Z,4.67
2022-11-01T20:07:00.947Z,3.87
2022-11-01T20:09:31.450Z,3.40
2022-11-01T20:11:59.590Z,4.40
2022-11-01T20:14:27.735Z,3.37
2022-11-01T20:16:57.460Z,5.87
2022-11-01T20:19:25.670Z,2.33
2022-11-01T20:21:53.814Z,2.57
2022-11-01T20:24:22.125Z,3.30
2022-11-01T20:26:50.670Z,3.33
2022-11-01T20:29:18.964Z,4.20
2022-11-01T20:31:47.738Z,6.30
2022-11-01T20:34:17.282Z,2.73
2022-11-01T20:37:02.269Z,3.53
2022-11-01T20:39:33.741Z,7.20
2022-11-01T20:42:01.937Z,3.83
2022-11-01T20:44:30.272Z,3.37
2022-11-01T20:46:58.409Z,2.10
2022-11-01T20:49:28.376Z,5.27
2022-11-01T20:52:03.822Z,4.43
2022-11-01T20:54:44.781Z,2.10
2022-11-01T20:57:27.028Z,3.60
2022-11-01T20:59:55.982Z,4.90
2022-11-01T21:02:24.673Z,1.90
2022-11-01T21:05:00.994Z,3.57
2022-11-01T21:07:31.340Z,4.67
2022-11-01T21:09:59.631Z,5.03
2022-11-01T21:12:44.769Z,3.70
2022-11-01T21:15:37.649Z,2.47
2022-11-01T21:18:45.875Z,2.63
2022-11-01T21:21:35.412Z,2.53
2022-11-01T21:24:29.493Z,1.37
2022-11-01T21:30:15.936Z,3.63
2022-11-01T21:32:46.082Z,3.20
2022-11-01T21:35:41.001Z,3.97
2022-11-01T21:38:38.414Z,3.63
2022-11-01T21:41:26.918Z,2.20
2022-11-01T21:43:55.732Z,2.53
2022-11-01T21:46:26.751Z,4.07
2022-11-01T21:49:00.553Z,2.33
2022-11-01T21:51:32.666Z,4.70
2022-11-01T21:54:04.440Z,3.37
2022-11-01T21:56:32.949Z,2.40
2022-11-01T21:59:01.955Z,3.90
2022-11-01T22:01:36.566Z,3.60
2022-11-01T22:04:05.101Z,2.37
2022-11-01T22:06:33.224Z,4.37
2022-11-01T22:09:03.318Z,5.00
2022-11-01T22:11:32.800Z,4.73
2022-11-01T22:14:01.029Z,5.23
2022-11-01T22:16:29.234Z,6.07
2022-11-01T22:18:57.459Z,4.57
2022-11-01T22:21:25.866Z,2.20
2022-11-01T22:23:54.252Z,2.63
2022-11-01T22:26:24.550Z,4.50
2022-11-01T22:28:53.166Z,2.27
2022-11-01T22:31:21.978Z,2.57
2022-11-01T22:33:53.281Z,1.63
2022-11-01T22:36:25.277Z,3.27
2022-11-01T22:38:57.720Z,3.90
2022-11-01T22:41:33.105Z,2.27
2022-11-01T22:44:06.160Z,2.33
2022-11-01T22:46:45.298Z,2.10
2022-11-01T22:49:20.195Z,2.67
2022-11-01T22:51:52.056Z,1.53
2022-11-01T22:54:33.937Z,4.80
2022-11-01T22:57:15.353Z,2.23
2022-11-01T22:59:48.399Z,2.70
2022-11-01T23:02:28.799Z,3.23
2022-11-01T23:05:21.360Z,2.63
2022-11-01T23:07:51.573Z,3.87
2022-11-01T23:10:30.247Z,2.07
2022-11-01T23:13:34.459Z,3.37
2022-11-01T23:16:04.880Z,2.57
2022-11-01T23:18:37.450Z,2.67
2022-11-01T23:21:08.438Z,2.13
2022-11-01T23:23:37.637Z,4.73
2022-11-01T23:26:06.258Z,3.37
2022-11-01T23:28:37.315Z,1.93
2022-11-01T23:31:06.602Z,3.30
2022-11-01T23:33:39.886Z,3.43
2022-11-01T23:36:17.066Z,2.40
2022-11-01T23:38:48.548Z,2.17
2022-11-01T23:41:23.556Z,2.60
2022-11-01T23:43:55.979Z,1.90
2022-11-01T23:46:25.400Z,3.60
2022-11-01T23:49:00.585Z,2.73
2022-11-01T23:51:31.125Z,3.27
2022-11-01T23:53:59.855Z,3.80
2022-11-01T23:56:28.092Z,1.63
2022-11-01T23:59:04.921Z,6.80
